sensor_id;sensor_type;location;lat;lon;timestamp;pressure;altitude;pressure_sealevel;temperature;humidity
9839;BME280;4958;48.150;11.506;2022-12-20T00:02:11;96279.28;;;2.85;100.00
9839;BME280;4958;48.150;11.506;2022-12-20T02:12:47;96242.22;;;3.27;100.00
9839;BME280;4958;48.150;11.506;2022-12-20T03:49:48;96171.53;;;3.30;100.00
9839;BME280;4958;48.150;11.506;2022-12-20T03:52:41;96173.53;;;3.27;100.00
9839;BME280;4958;48.150;11.506;2022-12-20T03:56:10;96175.81;;;3.30;100.00
9839;BME280;4958;48.150;11.506;2022-12-20T04:09:26;96188.88;;;3.47;100.00
9839;BME280;4958;48.150;11.506;2022-12-20T04:12:30;96197.06;;;3.51;100.00
9839;BME280;4958;48.150;11.506;2022-12-20T04:15:25;96202.97;;;3.52;100.00
9839;BME280;4958;48.150;11.506;2022-12-20T04:18:20;96200.09;;;3.56;100.00
9839;BME280;4958;48.150;11.506;2022-12-20T04:21:21;96201.59;;;3.59;100.00
9839;BME280;4958;48.150;11.506;2022-12-20T04:24:03;96202.28;;;3.61;100.00
9839;BME280;4958;48.150;11.506;2022-12-20T04:26:37;96198.81;;;3.62;100.00
9839;BME280;4958;48.150;11.506;2022-12-20T04:29:35;96191.06;;;3.63;100.00
9839;BME280;4958;48.150;11.506;2022-12-20T04:32:22;96186.91;;;3.62;100.00
9839;BME280;4958;48.150;11.506;2022-12-20T05:10:28;96135.09;;;3.41;100.00
9839;BME280;4958;48.150;11.506;2022-12-20T05:13:17;96134.88;;;3.44;100.00
9839;BME280;4958;48.150;11.506;2022-12-20T05:15:49;96139.03;;;3.45;100.00
9839;BME280;4958;48.150;11.506;2022-12-20T05:18:27;96123.59;;;3.46;100.00
9839;BME280;4958;48.150;11.506;2022-12-20T05:21:27;96130.88;;;3.51;100.00
9839;BME280;4958;48.150;11.506;2022-12-20T05:24:11;96134.25;;;3.52;100.00
9839;BME280;4958;48.150;11.506;2022-12-20T05:30:25;96133.53;;;3.61;100.00
9839;BME280;4958;48.150;11.506;2022-12-20T05:33:05;96125.91;;;3.61;100.00
9839;BME280;4958;48.150;11.506;2022-12-20T05:35:32;96116.78;;;3.58;100.00
9839;BME280;4958;48.150;11.506;2022-12-20T05:37:58;96120.13;;;3.59;100.00
9839;BME280;4958;48.150;11.506;2022-12-20T05:40:25;96118.69;;;3.66;100.00
9839;BME280;4958;48.150;11.506;2022-12-20T05:42:52;96120.06;;;3.70;100.00
9839;BME280;4958;48.150;11.506;2022-12-20T05:45:20;96105.47;;;3.72;100.00
9839;BME280;4958;48.150;11.506;2022-12-20T05:47:47;96111.97;;;3.76;100.00
9839;BME280;4958;48.150;11.506;2022-12-20T05:50:13;96104.19;;;3.77;99.78
9839;BME280;4958;48.150;11.506;2022-12-20T05:52:41;96100.72;;;3.78;99.72
9839;BME280;4958;48.150;11.506;2022-12-20T05:55:08;96084.63;;;3.78;99.73
9839;BME280;4958;48.150;11.506;2022-12-20T05:57:35;96089.16;;;3.74;100.00
9839;BME280;4958;48.150;11.506;2022-12-20T06:00:02;96099.22;;;3.76;100.00
9839;BME280;4958;48.150;11.506;2022-12-20T06:02:30;96102.47;;;3.78;100.00
9839;BME280;4958;48.150;11.506;2022-12-20T06:04:57;96106.28;;;3.84;99.85
9839;BME280;4958;48.150;11.506;2022-12-20T06:07:23;96101.97;;;3.84;99.63
9839;BME280;4958;48.150;11.506;2022-12-20T06:09:50;96103.44;;;3.87;99.40
9839;BME280;4958;48.150;11.506;2022-12-20T06:12:16;96111.38;;;3.84;99.64
9839;BME280;4958;48.150;11.506;2022-12-20T06:14:43;96102.78;;;3.85;99.60
9839;BME280;4958;48.150;11.506;2022-12-20T06:17:09;96101.59;;;3.89;99.68
9839;BME280;4958;48.150;11.506;2022-12-20T06:19:37;96098.00;;;3.91;99.20
9839;BME280;4958;48.150;11.506;2022-12-20T06:22:05;96092.78;;;3.93;99.63
9839;BME280;4958;48.150;11.506;2022-12-20T06:24:32;96093.59;;;3.93;99.17
9839;BME280;4958;48.150;11.506;2022-12-20T06:26:59;96093.47;;;3.95;99.52
9839;BME280;4958;48.150;11.506;2022-12-20T06:29:25;96094.97;;;3.97;99.13
9839;BME280;4958;48.150;11.506;2022-12-20T06:31:52;96094.16;;;3.97;99.41
9839;BME280;4958;48.150;11.506;2022-12-20T06:34:19;96098.31;;;3.98;99.30
9839;BME280;4958;48.150;11.506;2022-12-20T06:36:47;96101.56;;;4.00;98.88
9839;BME280;4958;48.150;11.506;2022-12-20T06:39:13;96106.41;;;4.03;98.80
9839;BME280;4958;48.150;11.506;2022-12-20T06:41:40;96106.41;;;4.03;98.75
9839;BME280;4958;48.150;11.506;2022-12-20T06:44:07;96103.72;;;4.04;98.66
9839;BME280;4958;48.150;11.506;2022-12-20T06:46:33;96102.38;;;4.00;98.83
9839;BME280;4958;48.150;11.506;2022-12-20T06:49:00;96097.16;;;4.02;99.30
9839;BME280;4958;48.150;11.506;2022-12-20T06:51:26;96093.69;;;4.03;99.98
9839;BME280;4958;48.150;11.506;2022-12-20T06:53:54;96105.34;;;4.05;98.92
9839;BME280;4958;48.150;11.506;2022-12-20T06:56:21;96108.03;;;4.04;98.79
9839;BME280;4958;48.150;11.506;2022-12-20T06:58:47;96102.13;;;4.03;99.06
9839;BME280;4958;48.150;11.506;2022-12-20T07:01:13;96095.53;;;4.01;99.80
9839;BME280;4958;48.150;11.506;2022-12-20T07:03:40;96097.16;;;4.02;99.52
9839;BME280;4958;48.150;11.506;2022-12-20T07:06:07;96088.81;;;4.00;99.85
9839;BME280;4958;48.150;11.506;2022-12-20T07:08:33;96089.06;;;3.97;100.00
9839;BME280;4958;48.150;11.506;2022-12-20T07:11:04;96083.28;;;3.95;100.00
9839;BME280;4958;48.150;11.506;2022-12-20T07:13:31;96078.88;;;3.97;100.00
9839;BME280;4958;48.150;11.506;2022-12-20T07:15:57;96092.41;;;3.97;99.83
9839;BME280;4958;48.150;11.506;2022-12-20T07:18:24;96089.06;;;3.97;99.97
9839;BME280;4958;48.150;11.506;2022-12-20T07:20:51;96089.88;;;3.97;100.00
9839;BME280;4958;48.150;11.506;2022-12-20T07:23:17;96094.03;;;3.98;100.00
9839;BME280;4958;48.150;11.506;2022-12-20T07:25:52;96085.81;;;3.95;100.00
9839;BME280;4958;48.150;11.506;2022-12-20T07:28:20;96096.72;;;3.97;100.00
9839;BME280;4958;48.150;11.506;2022-12-20T07:30:46;96083.84;;;3.98;100.00
9839;BME280;4958;48.150;11.506;2022-12-20T07:33:13;96088.94;;;3.98;100.00
9839;BME280;4958;48.150;11.506;2022-12-20T07:35:39;96095.91;;;3.96;100.00
9839;BME280;4958;48.150;11.506;2022-12-20T07:38:05;96096.81;;;3.95;100.00
9839;BME280;4958;48.150;11.506;2022-12-20T07:40:32;96099.13;;;3.98;100.00
9839;BME280;4958;48.150;11.506;2022-12-20T07:42:58;96097.28;;;4.00;100.00
9839;BME280;4958;48.150;11.506;2022-12-20T07:45:26;96101.44;;;4.01;100.00
9839;BME280;4958;48.150;11.506;2022-12-20T07:47:52;96103.88;;;4.03;100.00
9839;BME280;4958;48.150;11.506;2022-12-20T07:50:21;96124.09;;;4.04;100.00
9839;BME280;4958;48.150;11.506;2022-12-20T07:52:48;96117.13;;;4.06;99.77
9839;BME280;4958;48.150;11.506;2022-12-20T07:55:16;96111.91;;;4.08;100.00
9839;BME280;4958;48.150;11.506;2022-12-20T07:57:46;96112.84;;;4.07;100.00
9839;BME280;4958;48.150;11.506;2022-12-20T08:00:15;96118.06;;;4.05;100.00
9839;BME280;4958;48.150;11.506;2022-12-20T08:02:48;96118.22;;;4.04;100.00
9839;BME280;4958;48.150;11.506;2022-12-20T08:05:17;96119.69;;;4.06;100.00
9839;BME280;4958;48.150;11.506;2022-12-20T08:07:45;96116.91;;;4.09;100.00
9839;BME280;4958;48.150;11.506;2022-12-20T08:10:13;96108.69;;;4.06;100.00
9839;BME280;4958;48.150;11.506;2022-12-20T08:12:42;96107.50;;;4.10;100.00
9839;BME280;4958;48.150;11.506;2022-12-20T08:15:10;96108.09;;;4.13;100.00
9839;BME280;4958;48.150;11.506;2022-12-20T08:17:37;96112.69;;;4.20;100.00
9839;BME280;4958;48.150;11.506;2022-12-20T08:20:06;96104.81;;;4.23;100.00
9839;BME280;4958;48.150;11.506;2022-12-20T08:22:33;96110.44;;;4.26;100.00
9839;BME280;4958;48.150;11.506;2022-12-20T08:25:00;96108.44;;;4.30;100.00
9839;BME280;4958;48.150;11.506;2022-12-20T08:27:26;96097.31;;;4.31;100.00
9839;BME280;4958;48.150;11.506;2022-12-20T08:29:53;96094.53;;;4.34;100.00
9839;BME280;4958;48.150;11.506;2022-12-20T08:32:19;96085.69;;;4.38;100.00
9839;BME280;4958;48.150;11.506;2022-12-20T08:34:46;96089.88;;;4.39;100.00
9839;BME280;4958;48.150;11.506;2022-12-20T08:37:16;96084.38;;;4.43;100.00
9839;BME280;4958;48.150;11.506;2022-12-20T08:39:42;96084.00;;;4.48;100.00
9839;BME280;4958;48.150;11.506;2022-12-20T08:42:09;96090.47;;;4.52;99.56
9839;BME280;4958;48.150;11.506;2022-12-20T08:44:36;96093.56;;;4.56;99.91
9839;BME280;4958;48.150;11.506;2022-12-20T08:47:04;96096.00;;;4.57;100.00
9839;BME280;4958;48.150;11.506;2022-12-20T08:49:31;96101.91;;;4.58;99.40
9839;BME280;4958;48.150;11.506;2022-12-20T08:51:57;96103.28;;;4.62;100.00
9839;BME280;4958;48.150;11.506;2022-12-20T08:54:25;96105.53;;;4.65;99.20
9839;BME280;4958;48.150;11.506;2022-12-20T08:56:52;96104.25;;;4.70;98.57
9839;BME280;4958;48.150;11.506;2022-12-20T08:59:18;96098.88;;;4.73;97.74
9839;BME280;4958;48.150;11.506;2022-12-20T09:01:45;96095.84;;;4.79;97.95
9839;BME280;4958;48.150;11.506;2022-12-20T09:04:11;96094.75;;;4.82;98.09
9839;BME280;4958;48.150;11.506;2022-12-20T09:06:38;96095.19;;;4.87;97.83
9839;BME280;4958;48.150;11.506;2022-12-20T09:09:05;96090.63;;;4.91;98.14
9839;BME280;4958;48.150;11.506;2022-12-20T09:11:33;96081.78;;;4.95;97.61
9839;BME280;4958;48.150;11.506;2022-12-20T09:14:00;96079.09;;;4.96;97.52
9839;BME280;4958;48.150;11.506;2022-12-20T09:16:28;96075.75;;;4.96;97.87
9839;BME280;4958;48.150;11.506;2022-12-20T09:18:56;96072.00;;;5.00;97.65
9839;BME280;4958;48.150;11.506;2022-12-20T09:21:23;96067.41;;;5.03;96.83
9839;BME280;4958;48.150;11.506;2022-12-20T09:23:50;96070.16;;;5.11;97.04
9839;BME280;4958;48.150;11.506;2022-12-20T09:26:18;96072.31;;;5.16;96.61
9839;BME280;4958;48.150;11.506;2022-12-20T09:28:47;96067.47;;;5.22;96.25
9839;BME280;4958;48.150;11.506;2022-12-20T09:31:15;96066.69;;;5.32;96.90
9839;BME280;4958;48.150;11.506;2022-12-20T09:33:42;96057.53;;;5.39;94.97
9839;BME280;4958;48.150;11.506;2022-12-20T09:36:10;96063.06;;;5.44;94.08
9839;BME280;4958;48.150;11.506;2022-12-20T09:38:37;96055.28;;;5.45;93.41
9839;BME280;4958;48.150;11.506;2022-12-20T09:41:06;96048.28;;;5.47;94.00
9839;BME280;4958;48.150;11.506;2022-12-20T09:43:33;96044.66;;;5.50;93.90
9839;BME280;4958;48.150;11.506;2022-12-20T09:46:02;96032.16;;;5.47;93.86
9839;BME280;4958;48.150;11.506;2022-12-20T09:48:31;96032.97;;;5.47;93.43
9839;BME280;4958;48.150;11.506;2022-12-20T09:51:08;96034.44;;;5.50;93.55
9839;BME280;4958;48.150;11.506;2022-12-20T09:53:47;96041.47;;;5.58;93.53
9839;BME280;4958;48.150;11.506;2022-12-20T09:56:24;96023.81;;;5.64;93.06
9839;BME280;4958;48.150;11.506;2022-12-20T09:58:58;96027.72;;;5.68;92.67
9839;BME280;4958;48.150;11.506;2022-12-20T10:01:29;96021.41;;;5.72;91.93
9839;BME280;4958;48.150;11.506;2022-12-20T10:03:58;96016.31;;;5.72;91.47
9839;BME280;4958;48.150;11.506;2022-12-20T10:06:35;96013.34;;;5.77;91.69
9839;BME280;4958;48.150;11.506;2022-12-20T10:09:11;96001.22;;;5.79;91.71
9839;BME280;4958;48.150;11.506;2022-12-20T10:11:48;96014.41;;;5.84;91.66
9839;BME280;4958;48.150;11.506;2022-12-20T10:14:29;96016.16;;;5.83;90.38
9839;BME280;4958;48.150;11.506;2022-12-20T10:17:03;96018.88;;;5.92;90.64
9839;BME280;4958;48.150;11.506;2022-12-20T10:19:53;96022.47;;;5.99;89.59
9839;BME280;4958;48.150;11.506;2022-12-20T10:22:28;96021.25;;;6.03;90.40
9839;BME280;4958;48.150;11.506;2022-12-20T10:25:05;96015.59;;;6.09;92.39
9839;BME280;4958;48.150;11.506;2022-12-20T10:27:39;96019.50;;;6.13;92.34
9839;BME280;4958;48.150;11.506;2022-12-20T10:30:11;96024.19;;;6.17;91.37
9839;BME280;4958;48.150;11.506;2022-12-20T10:32:41;96019.88;;;6.18;91.75
9839;BME280;4958;48.150;11.506;2022-12-20T10:35:22;96014.75;;;6.18;94.12
9839;BME280;4958;48.150;11.506;2022-12-20T10:37:58;96007.47;;;6.23;94.08
9839;BME280;4958;48.150;11.506;2022-12-20T10:40:26;96001.28;;;6.26;94.83
9839;BME280;4958;48.150;11.506;2022-12-20T10:42:54;95998.59;;;6.27;94.42
9839;BME280;4958;48.150;11.506;2022-12-20T10:45:31;95995.09;;;6.28;93.87
9839;BME280;4958;48.150;11.506;2022-12-20T10:48:01;95986.63;;;6.28;94.71
9839;BME280;4958;48.150;11.506;2022-12-20T10:50:28;95979.75;;;6.28;93.92
9839;BME280;4958;48.150;11.506;2022-12-20T10:53:18;95970.59;;;6.26;96.30
9839;BME280;4958;48.150;11.506;2022-12-20T10:55:46;95962.78;;;6.27;95.04
9839;BME280;4958;48.150;11.506;2022-12-20T10:58:15;95957.28;;;6.32;94.41
9839;BME280;4958;48.150;11.506;2022-12-20T11:00:43;95957.94;;;6.34;92.68
9839;BME280;4958;48.150;11.506;2022-12-20T11:03:14;95947.25;;;6.38;92.92
9839;BME280;4958;48.150;11.506;2022-12-20T11:05:52;95948.72;;;6.41;92.11
9839;BME280;4958;48.150;11.506;2022-12-20T11:08:20;95944.94;;;6.45;92.92
9839;BME280;4958;48.150;11.506;2022-12-20T11:10:48;95939.41;;;6.49;93.00
9839;BME280;4958;48.150;11.506;2022-12-20T11:13:21;95943.44;;;6.52;93.03
9839;BME280;4958;48.150;11.506;2022-12-20T11:15:49;95937.38;;;6.53;92.83
9839;BME280;4958;48.150;11.506;2022-12-20T11:18:26;95937.75;;;6.58;93.02
9839;BME280;4958;48.150;11.506;2022-12-20T11:20:59;95929.66;;;6.63;93.12
9839;BME280;4958;48.150;11.506;2022-12-20T11:23:36;95929.38;;;6.66;93.18
9839;BME280;4958;48.150;11.506;2022-12-20T11:26:18;95923.97;;;6.69;93.40
9839;BME280;4958;48.150;11.506;2022-12-20T11:29:02;95918.25;;;6.75;93.65
9839;BME280;4958;48.150;11.506;2022-12-20T11:31:41;95911.63;;;6.82;92.89
9839;BME280;4958;48.150;11.506;2022-12-20T11:34:19;95915.72;;;6.92;92.79
9839;BME280;4958;48.150;11.506;2022-12-20T11:37:10;95908.78;;;7.03;92.78
9839;BME280;4958;48.150;11.506;2022-12-20T11:39:50;95897.94;;;7.09;91.74
9839;BME280;4958;48.150;11.506;2022-12-20T11:42:26;95899.91;;;7.15;90.38
9839;BME280;4958;48.150;11.506;2022-12-20T11:45:01;95885.72;;;7.20;89.87
9839;BME280;4958;48.150;11.506;2022-12-20T11:47:50;95878.25;;;7.27;90.60
9839;BME280;4958;48.150;11.506;2022-12-20T11:50:35;95877.84;;;7.40;89.98
9839;BME280;4958;48.150;11.506;2022-12-20T11:53:09;95870.69;;;7.43;88.39
9839;BME280;4958;48.150;11.506;2022-12-20T11:55:40;95861.09;;;7.45;85.90
9839;BME280;4958;48.150;11.506;2022-12-20T11:58:14;95862.41;;;7.49;86.51
9839;BME280;4958;48.150;11.506;2022-12-20T12:00:48;95861.28;;;7.52;86.65
9839;BME280;4958;48.150;11.506;2022-12-20T12:03:19;95860.97;;;7.55;85.08
9839;BME280;4958;48.150;11.506;2022-12-20T12:05:51;95851.25;;;7.58;85.77
9839;BME280;4958;48.150;11.506;2022-12-20T12:08:23;95864.50;;;7.54;85.99
9839;BME280;4958;48.150;11.506;2022-12-20T12:10:55;95852.31;;;7.48;87.16
9839;BME280;4958;48.150;11.506;2022-12-20T12:13:26;95856.94;;;7.44;88.00
9839;BME280;4958;48.150;11.506;2022-12-20T12:15:56;95855.31;;;7.43;87.83
9839;BME280;4958;48.150;11.506;2022-12-20T12:18:28;95847.78;;;7.42;88.26
9839;BME280;4958;48.150;11.506;2022-12-20T12:21:01;95845.50;;;7.39;91.51
9839;BME280;4958;48.150;11.506;2022-12-20T12:23:38;95844.84;;;7.37;90.04
9839;BME280;4958;48.150;11.506;2022-12-20T12:26:19;95841.63;;;7.35;90.62
9839;BME280;4958;48.150;11.506;2022-12-20T12:28:50;95846.91;;;7.33;91.41
9839;BME280;4958;48.150;11.506;2022-12-20T12:31:24;95840.34;;;7.31;90.54
9839;BME280;4958;48.150;11.506;2022-12-20T12:34:01;95837.94;;;7.29;90.41
9839;BME280;4958;48.150;11.506;2022-12-20T12:36:41;95849.28;;;7.26;90.79
9839;BME280;4958;48.150;11.506;2022-12-20T12:39:26;95840.94;;;7.24;91.12
9839;BME280;4958;48.150;11.506;2022-12-20T12:42:20;95838.88;;;7.28;91.16
9839;BME280;4958;48.150;11.506;2022-12-20T12:44:55;95831.53;;;7.33;90.75
9839;BME280;4958;48.150;11.506;2022-12-20T12:47:28;95823.22;;;7.31;90.93
9839;BME280;4958;48.150;11.506;2022-12-20T12:50:00;95820.00;;;7.29;90.82
9839;BME280;4958;48.150;11.506;2022-12-20T12:52:40;95815.03;;;7.27;90.76
9839;BME280;4958;48.150;11.506;2022-12-20T12:55:33;95815.84;;;7.28;90.93
9839;BME280;4958;48.150;11.506;2022-12-20T12:58:12;95814.22;;;7.27;90.67
9839;BME280;4958;48.150;11.506;2022-12-20T13:00:47;95813.56;;;7.25;91.18
9839;BME280;4958;48.150;11.506;2022-12-20T13:03:15;95811.97;;;7.24;91.57
9839;BME280;4958;48.150;11.506;2022-12-20T13:05:42;95810.06;;;7.26;91.89
9839;BME280;4958;48.150;11.506;2022-12-20T13:08:16;95819.34;;;7.27;91.76
9839;BME280;4958;48.150;11.506;2022-12-20T13:10:58;95818.53;;;7.26;91.10
9839;BME280;4958;48.150;11.506;2022-12-20T13:13:24;95813.44;;;7.26;91.15
9839;BME280;4958;48.150;11.506;2022-12-20T13:16:10;95814.53;;;7.24;90.70
9839;BME280;4958;48.150;11.506;2022-12-20T13:18:37;95815.63;;;7.21;92.06
9839;BME280;4958;48.150;11.506;2022-12-20T13:21:35;95817.81;;;7.16;91.81
9839;BME280;4958;48.150;11.506;2022-12-20T13:24:37;95826.75;;;7.12;93.82
9839;BME280;4958;48.150;11.506;2022-12-20T13:27:30;95833.16;;;7.08;96.55
9839;BME280;4958;48.150;11.506;2022-12-20T13:35:55;95839.09;;;6.91;97.43
9839;BME280;4958;48.150;11.506;2022-12-20T13:38:49;95832.00;;;6.85;98.93
9839;BME280;4958;48.150;11.506;2022-12-20T13:41:26;95839.28;;;6.80;98.54
9839;BME280;4958;48.150;11.506;2022-12-20T13:43:57;95839.88;;;6.74;99.13
9839;BME280;4958;48.150;11.506;2022-12-20T13:46:29;95836.59;;;6.64;100.00
9839;BME280;4958;48.150;11.506;2022-12-20T13:49:00;95826.66;;;6.61;98.68
9839;BME280;4958;48.150;11.506;2022-12-20T13:51:28;95817.16;;;6.53;99.16
9839;BME280;4958;48.150;11.506;2022-12-20T13:53:56;95808.16;;;6.49;98.58
9839;BME280;4958;48.150;11.506;2022-12-20T13:56:34;95812.75;;;6.45;97.53
9839;BME280;4958;48.150;11.506;2022-12-20T13:59:11;95821.00;;;6.39;97.46
9839;BME280;4958;48.150;11.506;2022-12-20T14:01:46;95817.06;;;6.27;96.71
9839;BME280;4958;48.150;11.506;2022-12-20T14:04:13;95812.59;;;6.29;95.90
9839;BME280;4958;48.150;11.506;2022-12-20T14:06:40;95815.16;;;6.29;95.41
9839;BME280;4958;48.150;11.506;2022-12-20T14:09:26;95812.31;;;6.32;95.82
9839;BME280;4958;48.150;11.506;2022-12-20T14:12:02;95799.97;;;6.45;94.77
9839;BME280;4958;48.150;11.506;2022-12-20T14:14:28;95801.88;;;6.61;93.44
9839;BME280;4958;48.150;11.506;2022-12-20T14:16:55;95783.09;;;6.70;92.71
9839;BME280;4958;48.150;11.506;2022-12-20T14:19:21;95784.47;;;6.65;93.22
9839;BME280;4958;48.150;11.506;2022-12-20T14:21:47;95783.81;;;6.63;92.38
9839;BME280;4958;48.150;11.506;2022-12-20T14:24:16;95772.94;;;6.61;92.03
9839;BME280;4958;48.150;11.506;2022-12-20T14:26:46;95772.41;;;6.57;91.66
9839;BME280;4958;48.150;11.506;2022-12-20T14:29:18;95759.28;;;6.52;91.86
9839;BME280;4958;48.150;11.506;2022-12-20T14:31:46;95759.06;;;6.45;92.32
9839;BME280;4958;48.150;11.506;2022-12-20T14:34:17;95749.25;;;6.41;92.35
9839;BME280;4958;48.150;11.506;2022-12-20T14:36:45;95747.59;;;6.32;92.64
9839;BME280;4958;48.150;11.506;2022-12-20T14:39:23;95755.97;;;6.24;92.92
9839;BME280;4958;48.150;11.506;2022-12-20T14:41:54;95766.63;;;6.19;93.40
9839;BME280;4958;48.150;11.506;2022-12-20T14:44:24;95779.22;;;6.13;93.84
9839;BME280;4958;48.150;11.506;2022-12-20T14:46:52;95779.78;;;6.07;94.63
9839;BME280;4958;48.150;11.506;2022-12-20T14:49:22;95782.38;;;5.97;95.72
9839;BME280;4958;48.150;11.506;2022-12-20T14:51:51;95786.84;;;5.95;95.60
9839;BME280;4958;48.150;11.506;2022-12-20T14:54:19;95781.88;;;5.94;95.55
9839;BME280;4958;48.150;11.506;2022-12-20T14:56:47;95773.84;;;5.88;96.36
9839;BME280;4958;48.150;11.506;2022-12-20T14:59:16;95765.22;;;5.80;96.75
9839;BME280;4958;48.150;11.506;2022-12-20T15:01:45;95749.41;;;5.76;96.66
9839;BME280;4958;48.150;11.506;2022-12-20T15:04:22;95766.63;;;5.74;96.44
9839;BME280;4958;48.150;11.506;2022-12-20T15:06:49;95781.13;;;5.74;96.75
9839;BME280;4958;48.150;11.506;2022-12-20T15:09:17;95773.22;;;5.67;97.71
9839;BME280;4958;48.150;11.506;2022-12-20T15:11:44;95767.31;;;5.67;97.87
9839;BME280;4958;48.150;11.506;2022-12-20T15:14:20;95772.84;;;5.62;98.28
9839;BME280;4958;48.150;11.506;2022-12-20T15:16:49;95774.88;;;5.59;98.33
9839;BME280;4958;48.150;11.506;2022-12-20T15:19:16;95760.34;;;5.59;98.27
9839;BME280;4958;48.150;11.506;2022-12-20T15:21:43;95760.53;;;5.58;98.00
9839;BME280;4958;48.150;11.506;2022-12-20T15:24:12;95752.34;;;5.54;98.67
9839;BME280;4958;48.150;11.506;2022-12-20T15:26:39;95743.88;;;5.53;98.62
9839;BME280;4958;48.150;11.506;2022-12-20T15:29:06;95736.47;;;5.50;98.62
9839;BME280;4958;48.150;11.506;2022-12-20T15:31:34;95728.09;;;5.31;100.00
9839;BME280;4958;48.150;11.506;2022-12-20T15:34:06;95741.69;;;5.21;100.00
9839;BME280;4958;48.150;11.506;2022-12-20T15:36:38;95745.56;;;5.26;100.00
9839;BME280;4958;48.150;11.506;2022-12-20T15:39:04;95746.09;;;5.29;100.00
9839;BME280;4958;48.150;11.506;2022-12-20T15:41:32;95753.34;;;5.34;100.00
9839;BME280;4958;48.150;11.506;2022-12-20T15:44:02;95750.81;;;5.34;100.00
9839;BME280;4958;48.150;11.506;2022-12-20T15:46:29;95745.03;;;5.32;100.00
9839;BME280;4958;48.150;11.506;2022-12-20T15:48:56;95739.91;;;5.32;100.00
9839;BME280;4958;48.150;11.506;2022-12-20T15:51:26;95732.94;;;5.34;100.00
9839;BME280;4958;48.150;11.506;2022-12-20T15:53:55;95740.44;;;5.35;99.88
9839;BME280;4958;48.150;11.506;2022-12-20T15:56:22;95737.75;;;5.37;99.73
9839;BME280;4958;48.150;11.506;2022-12-20T15:58:49;95749.41;;;5.39;99.25
9839;BME280;4958;48.150;11.506;2022-12-20T16:01:18;95758.69;;;5.40;99.00
9839;BME280;4958;48.150;11.506;2022-12-20T16:03:45;95749.28;;;5.41;99.33
9839;BME280;4958;48.150;11.506;2022-12-20T16:06:12;95746.72;;;5.41;99.26
9839;BME280;4958;48.150;11.506;2022-12-20T16:08:40;95747.53;;;5.41;99.28
9839;BME280;4958;48.150;11.506;2022-12-20T16:11:18;95755.06;;;5.43;99.02
9839;BME280;4958;48.150;11.506;2022-12-20T16:13:45;95747.84;;;5.38;99.82
9839;BME280;4958;48.150;11.506;2022-12-20T16:16:15;95740.94;;;5.39;100.00
9839;BME280;4958;48.150;11.506;2022-12-20T16:18:42;95736.66;;;5.39;99.62
9839;BME280;4958;48.150;11.506;2022-12-20T16:21:13;95733.16;;;5.40;99.27
9839;BME280;4958;48.150;11.506;2022-12-20T16:23:42;95737.31;;;5.41;99.20
9839;BME280;4958;48.150;11.506;2022-12-20T16:26:11;95734.75;;;5.41;99.31
9839;BME280;4958;48.150;11.506;2022-12-20T16:28:38;95754.38;;;5.41;98.98
9839;BME280;4958;48.150;11.506;2022-12-20T16:31:10;95746.84;;;5.39;99.23
9839;BME280;4958;48.150;11.506;2022-12-20T16:33:37;95734.91;;;5.40;98.92
9839;BME280;4958;48.150;11.506;2022-12-20T16:36:04;95727.41;;;5.38;99.09
9839;BME280;4958;48.150;11.506;2022-12-20T16:38:30;95736.66;;;5.39;98.93
9839;BME280;4958;48.150;11.506;2022-12-20T16:41:09;95733.47;;;5.37;98.79
9839;BME280;4958;48.150;11.506;2022-12-20T16:43:36;95742.88;;;5.37;99.08
9839;BME280;4958;48.150;11.506;2022-12-20T16:46:03;95752.53;;;5.33;99.20
9839;BME280;4958;48.150;11.506;2022-12-20T16:48:30;95760.47;;;5.30;99.08
9839;BME280;4958;48.150;11.506;2022-12-20T16:50:57;95747.06;;;5.28;99.05
9839;BME280;4958;48.150;11.506;2022-12-20T16:53:23;95746.25;;;5.28;98.78
9839;BME280;4958;48.150;11.506;2022-12-20T16:55:49;95752.28;;;5.27;98.87
9839;BME280;4958;48.150;11.506;2022-12-20T16:58:17;95747.31;;;5.25;99.42
9839;BME280;4958;48.150;11.506;2022-12-20T17:00:44;95743.97;;;5.25;99.78
9839;BME280;4958;48.150;11.506;2022-12-20T17:03:10;95756.72;;;5.25;98.93
9839;BME280;4958;48.150;11.506;2022-12-20T17:05:38;95758.63;;;5.22;99.11
9839;BME280;4958;48.150;11.506;2022-12-20T17:08:05;95751.63;;;5.25;98.88
9839;BME280;4958;48.150;11.506;2022-12-20T17:10:31;95746.53;;;5.25;99.04
9839;BME280;4958;48.150;11.506;2022-12-20T17:12:58;95748.25;;;5.24;98.96
9839;BME280;4958;48.150;11.506;2022-12-20T17:15:27;95750.94;;;5.22;99.44
9839;BME280;4958;48.150;11.506;2022-12-20T17:17:54;95750.28;;;5.20;99.08
9839;BME280;4958;48.150;11.506;2022-12-20T17:20:21;95760.00;;;5.17;99.52
9839;BME280;4958;48.150;11.506;2022-12-20T17:22:50;95763.63;;;5.14;99.67
9839;BME280;4958;48.150;11.506;2022-12-20T17:25:19;95755.31;;;5.12;99.59
9839;BME280;4958;48.150;11.506;2022-12-20T17:27:46;95744.16;;;5.13;99.47
9839;BME280;4958;48.150;11.506;2022-12-20T17:30:13;95739.19;;;5.12;99.48
9839;BME280;4958;48.150;11.506;2022-12-20T17:32:41;95742.94;;;5.08;99.77
9839;BME280;4958;48.150;11.506;2022-12-20T17:35:16;95748.91;;;4.99;100.00
9839;BME280;4958;48.150;11.506;2022-12-20T17:37:44;95744.06;;;4.96;100.00
9839;BME280;4958;48.150;11.506;2022-12-20T17:40:11;95744.34;;;4.93;100.00
9839;BME280;4958;48.150;11.506;2022-12-20T17:42:38;95752.00;;;4.93;100.00
9839;BME280;4958;48.150;11.506;2022-12-20T17:45:05;95738.97;;;4.96;100.00
9839;BME280;4958;48.150;11.506;2022-12-20T17:47:31;95731.03;;;4.99;100.00
9839;BME280;4958;48.150;11.506;2022-12-20T17:49:59;95734.38;;;4.99;100.00
9839;BME280;4958;48.150;11.506;2022-12-20T17:52:25;95737.75;;;5.00;100.00
9839;BME280;4958;48.150;11.506;2022-12-20T17:54:52;95730.59;;;5.03;100.00
9839;BME280;4958;48.150;11.506;2022-12-20T17:57:19;95734.63;;;5.06;100.00
9839;BME280;4958;48.150;11.506;2022-12-20T17:59:45;95732.06;;;5.06;100.00
9839;BME280;4958;48.150;11.506;2022-12-20T18:02:19;95735.03;;;5.11;100.00
9839;BME280;4958;48.150;11.506;2022-12-20T18:04:46;95727.22;;;5.12;100.00
9839;BME280;4958;48.150;11.506;2022-12-20T18:07:14;95718.34;;;5.16;100.00
9839;BME280;4958;48.150;11.506;2022-12-20T18:09:40;95712.72;;;5.13;100.00
9839;BME280;4958;48.150;11.506;2022-12-20T18:12:08;95714.47;;;5.12;100.00
9839;BME280;4958;48.150;11.506;2022-12-20T18:14:35;95714.47;;;5.12;100.00
9839;BME280;4958;48.150;11.506;2022-12-20T18:17:01;95718.09;;;5.10;100.00
9839;BME280;4958;48.150;11.506;2022-12-20T18:19:28;95725.75;;;5.10;100.00